Time;durP1;ratioP1;P1;durP2;ratioP2;P2;SDS_P1;SDS_P2;PMS_P1;PMS_P2;Temp;Humidity;BMP_temperature;BMP_pressure;BME280_temperature;BME280_humidity;BME280_pressure;Samples;Min_cycle;Max_cycle;Signal;HPM_P1;HPM_P2
2022/06/25 00:00:25;;;;;;;;;1.00;0.75;;;;;21.94;79.82;100668.84;5077689;27;45462;-82
2022/06/25 00:02:50;;;;;;;;;2.00;1.00;;;;;21.89;80.44;100647.78;5079277;28;45396;-83
2022/06/25 00:05:28;;;;;;;;;1.00;1.00;;;;;21.84;81.07;100660.13;5079942;27;45560;-80
2022/06/25 00:07:55;;;;;;;;;1.25;1.25;;;;;21.87;81.16;100662.72;5094957;27;45304;-83
2022/06/25 00:10:21;;;;;;;;;4.50;1.25;;;;;21.80;81.82;100646.09;5079703;27;45659;-82
2022/06/25 00:12:47;;;;;;;;;0.50;0.50;;;;;21.83;81.33;100655.72;5081260;27;45409;-81
2022/06/25 00:15:13;;;;;;;;;0.50;0.50;;;;;21.84;81.59;100662.75;5079197;28;45493;-82
2022/06/25 00:17:38;;;;;;;;;2.00;0.25;;;;;21.84;81.74;100656.59;5079363;28;45275;-83
2022/06/25 00:20:05;;;;;;;;;1.50;1.50;;;;;21.86;81.74;100661.00;5083543;27;45297;-82
2022/06/25 00:22:30;;;;;;;;;1.00;1.00;;;;;21.74;81.62;100638.19;5079317;28;45938;-82
2022/06/25 00:24:56;;;;;;;;;1.00;1.00;;;;;21.82;82.33;100656.59;5079811;27;45573;-81
2022/06/25 00:27:22;;;;;;;;;0.25;0.25;;;;;21.72;81.49;100641.72;5082524;27;46177;-81
2022/06/25 00:29:48;;;;;;;;;1.00;1.00;;;;;21.75;81.71;100649.63;5094896;27;45941;-80
2022/06/25 00:32:14;;;;;;;;;1.00;1.00;;;;;21.75;81.61;100637.31;5079387;27;45332;-81
2022/06/25 00:34:40;;;;;;;;;2.00;1.00;;;;;21.79;82.39;100648.72;5083657;27;45502;-80
2022/06/25 00:37:07;;;;;;;;;0.25;0.25;;;;;21.86;82.12;100654.84;5094102;27;45242;-79
2022/06/25 00:39:33;;;;;;;;;0.00;0.00;;;;;21.86;81.88;100653.09;5103118;27;45184;-80
2022/06/25 00:41:58;;;;;;;;;1.00;1.00;;;;;21.88;82.09;100650.44;5086745;27;45278;-80
2022/06/25 00:44:25;;;;;;;;;1.00;1.00;;;;;21.85;81.79;100653.97;5080654;27;45298;-80
2022/06/25 00:46:51;;;;;;;;;5.00;0.00;;;;;21.86;82.94;100657.47;5093111;27;45819;-80
2022/06/25 00:49:16;;;;;;;;;1.00;1.00;;;;;21.85;82.23;100647.81;5098708;27;45279;-81
2022/06/25 00:51:47;;;;;;;;;2.50;2.00;;;;;21.87;82.24;100665.34;5094098;27;45382;-80
2022/06/25 00:54:16;;;;;;;;;2.00;1.00;;;;;21.86;82.47;100652.19;5079847;27;45581;-79
2022/06/25 00:56:48;;;;;;;;;3.00;1.75;;;;;21.88;83.68;100666.25;5080707;27;45452;-79
2022/06/25 00:59:18;;;;;;;;;1.00;1.00;;;;;21.84;83.35;100662.75;5090243;27;45580;-81
2022/06/25 01:01:44;;;;;;;;;1.00;1.00;;;;;21.82;84.03;100660.97;5097681;27;45394;-80
2022/06/25 01:04:09;;;;;;;;;3.00;1.50;;;;;21.70;84.25;100644.38;5086805;27;45874;-79
2022/06/25 01:06:35;;;;;;;;;1.33;1.33;;;;;21.80;84.71;100667.16;5070974;27;47058;-81
2022/06/25 01:09:01;;;;;;;;;2.75;2.75;;;;;21.83;85.54;100671.53;5071857;27;45632;-79
2022/06/25 01:11:27;;;;;;;;;2.00;1.50;;;;;21.72;85.22;100644.34;5068591;27;45249;-83
2022/06/25 01:13:53;;;;;;;;;2.50;2.00;;;;;21.78;85.57;100654.84;5079143;27;45236;-82
2022/06/25 01:16:22;;;;;;;;;0.00;0.00;;;;;21.78;85.96;100671.56;5082917;27;45247;-81
2022/06/25 01:18:48;;;;;;;;;1.00;1.00;;;;;21.76;86.47;100664.53;5078631;28;45938;-83
2022/06/25 01:21:14;;;;;;;;;2.00;1.25;;;;;21.70;86.34;100654.91;5069823;28;45405;-81
2022/06/25 01:23:41;;;;;;;;;1.00;1.00;;;;;21.74;86.49;100663.69;5079241;27;45535;-83
2022/06/25 01:26:06;;;;;;;;;1.50;1.50;;;;;21.77;86.30;100661.91;5092637;27;46493;-81
2022/06/25 01:28:32;;;;;;;;;2.00;1.75;;;;;21.66;86.29;100650.53;5085415;27;45169;-81
2022/06/25 01:30:58;;;;;;;;;3.00;2.00;;;;;21.67;87.27;100662.81;5094554;27;45250;-83
2022/06/25 01:33:23;;;;;;;;;2.25;2.00;;;;;21.68;87.34;100661.03;5090595;27;45158;-83
2022/06/25 01:35:49;;;;;;;;;4.25;2.00;;;;;21.66;87.53;100671.59;5079384;27;45509;-83
2022/06/25 01:38:15;;;;;;;;;2.75;2.75;;;;;21.67;87.16;100664.56;5084303;27;45781;-83
2022/06/25 01:40:40;;;;;;;;;1.75;1.75;;;;;21.59;87.85;100648.81;5093455;27;45758;-83
2022/06/25 01:43:06;;;;;;;;;3.00;2.00;;;;;21.62;87.60;100661.94;5085275;27;45765;-81
2022/06/25 01:45:35;;;;;;;;;2.00;2.00;;;;;21.57;87.94;100664.56;5093293;27;45849;-81
2022/06/25 01:48:03;;;;;;;;;2.00;1.75;;;;;21.40;87.98;100645.31;5085201;27;45315;-81
2022/06/25 01:50:30;;;;;;;;;3.00;2.00;;;;;21.39;88.79;100648.81;5094311;27;45222;-81
2022/06/25 01:52:56;;;;;;;;;2.00;2.00;;;;;21.42;88.33;100659.34;5082058;27;45958;-81
2022/06/25 01:55:21;;;;;;;;;2.00;2.00;;;;;21.47;89.00;100671.63;5090189;27;45300;-80
2022/06/25 01:57:49;;;;;;;;;2.75;2.75;;;;;21.43;89.55;100656.72;5078951;27;45456;-82
2022/06/25 02:00:20;;;;;;;;;1.25;1.00;;;;;21.47;89.72;100670.75;5093921;27;45463;-80
2022/06/25 02:02:46;;;;;;;;;2.00;2.00;;;;;21.45;91.32;100661.97;5057893;28;45502;-81
2022/06/25 02:05:14;;;;;;;;;1.75;1.00;;;;;21.43;91.87;100676.91;5071592;27;46097;-80
2022/06/25 02:07:40;;;;;;;;;2.75;1.00;;;;;21.33;92.57;100668.16;5098012;27;45423;-80
2022/06/25 02:10:06;;;;;;;;;1.75;1.75;;;;;21.30;94.21;100683.94;5081068;27;45308;-80
2022/06/25 02:12:32;;;;;;;;;2.00;2.00;;;;;21.22;94.15;100688.34;5097162;27;45545;-80
2022/06/25 02:14:58;;;;;;;;;1.25;1.25;;;;;21.17;94.91;100677.81;5091296;27;46426;-80
2022/06/25 02:17:23;;;;;;;;;2.50;2.25;;;;;21.09;96.63;100672.56;5092323;27;45339;-79
2022/06/25 02:19:49;;;;;;;;;1.25;1.25;;;;;21.08;95.83;100676.06;5082373;27;45181;-81
2022/06/25 02:22:15;;;;;;;;;3.25;1.00;;;;;21.08;95.79;100678.69;5090623;27;45267;-83
2022/06/25 02:24:42;;;;;;;;;1.25;1.25;;;;;21.10;97.95;100681.34;5084304;27;45769;-82
2022/06/25 02:27:08;;;;;;;;;1.00;1.00;;;;;;;;5094829;27;45300;-81
2022/06/25 02:29:34;;;;;;;;;1.00;1.00;;;;;21.00;100.00;100683.09;5077723;28;45437;-83
2022/06/25 02:32:01;;;;;;;;;3.00;1.00;;;;;20.93;100.00;100686.63;5078031;27;45556;-82
2022/06/25 02:34:26;;;;;;;;;4.00;1.00;;;;;20.83;100.00;100681.38;5084612;27;45269;-79
2022/06/25 02:36:52;;;;;;;;;1.00;1.00;;;;;20.80;100.00;100681.34;5067436;27;45333;-80
2022/06/25 02:39:18;;;;;;;;;1.75;1.75;;;;;20.70;100.00;100663.78;5068899;28;45400;-80
2022/06/25 02:41:44;;;;;;;;;1.25;1.25;;;;;20.75;100.00;100696.25;5084893;27;45281;-80
2022/06/25 02:44:10;;;;;;;;;1.75;1.75;;;;;20.66;100.00;100697.09;5089304;27;46174;-80
2022/06/25 02:46:36;;;;;;;;;1.75;1.75;;;;;20.55;100.00;100693.56;5077055;28;45470;-79
2022/06/25 02:49:03;;;;;;;;;3.00;1.75;;;;;20.39;100.00;100676.88;5075871;27;45326;-80
2022/06/25 02:51:28;;;;;;;;;1.25;1.25;;;;;20.40;100.00;100682.13;5076009;28;45317;-81
2022/06/25 02:53:55;;;;;;;;;2.00;2.00;;;;;20.33;100.00;100676.84;5077056;27;45435;-82
2022/06/25 02:59:06;;;;;;;;;1.50;1.50;;;;;20.28;100.00;100653.19;5080477;28;45275;-81
2022/06/25 03:01:33;;;;;;;;;1.50;1.25;;;;;20.47;100.00;100683.03;5086293;28;45315;-82
2022/06/25 03:03:58;;;;;;;;;1.25;1.00;;;;;20.48;100.00;100671.63;5080878;28;45358;-82
2022/06/25 03:06:24;;;;;;;;;1.00;1.00;;;;;20.55;100.00;100680.41;5078110;27;45330;-82
2022/06/25 03:08:50;;;;;;;;;1.00;1.00;;;;;20.57;100.00;100673.41;5073270;27;45437;-83
2022/06/25 03:11:17;;;;;;;;;2.00;1.00;;;;;20.58;100.00;100685.66;5079875;27;45646;-82
2022/06/25 03:13:42;;;;;;;;;1.00;1.00;;;;;20.52;100.00;100675.16;5082023;27;46348;-82
2022/06/25 03:16:08;;;;;;;;;0.75;0.75;;;;;20.53;100.00;100683.03;5094868;27;45432;-81
2022/06/25 03:18:35;;;;;;;;;1.75;1.00;;;;;20.41;100.00;100660.22;5097530;27;45268;-82
2022/06/25 03:21:01;;;;;;;;;2.00;1.75;;;;;20.51;100.00;100673.38;5095841;27;45422;-81
2022/06/25 03:23:27;;;;;;;;;1.00;1.00;;;;;20.57;100.00;100681.31;5096258;27;45249;-80
2022/06/25 03:25:53;;;;;;;;;1.00;1.00;;;;;20.62;100.00;100676.06;5082486;27;45690;-80
2022/06/25 03:28:19;;;;;;;;;1.00;1.00;;;;;20.64;100.00;100687.44;5079714;27;45358;-80
2022/06/25 03:30:45;;;;;;;;;0.00;0.00;;;;;20.59;100.00;100673.41;5081565;27;45351;-80
2022/06/25 03:33:12;;;;;;;;;0.00;0.00;;;;;20.61;100.00;100676.91;5076174;27;45991;-80
2022/06/25 03:35:38;;;;;;;;;0.00;0.00;;;;;20.50;100.00;100669.91;5084511;27;45785;-80
2022/06/25 03:38:04;;;;;;;;;0.00;0.00;;;;;20.60;100.00;100690.94;5080595;27;45379;-79
2022/06/25 03:40:29;;;;;;;;;1.00;1.00;;;;;20.52;100.00;100691.78;5076450;27;45265;-79
2022/06/25 03:42:55;;;;;;;;;0.00;0.00;;;;;20.52;100.00;100683.03;5090572;27;46018;-79
2022/06/25 03:45:21;;;;;;;;;0.25;0.00;;;;;20.44;100.00;100685.66;5081530;27;45289;-79
2022/06/25 03:47:52;;;;;;;;;0.00;0.00;;;;;20.52;100.00;100693.56;5081548;27;45173;-80
2022/06/25 03:50:19;;;;;;;;;0.00;0.00;;;;;20.52;100.00;100709.34;5094479;27;45491;-80
2022/06/25 03:52:46;;;;;;;;;1.00;0.00;;;;;20.47;100.00;100701.44;5090352;27;46120;-80
2022/06/25 03:55:12;;;;;;;;;0.00;0.00;;;;;20.38;100.00;100689.16;5080118;27;45406;-81
2022/06/25 03:57:38;;;;;;;;;1.00;1.00;;;;;20.41;100.00;100698.78;5079398;27;45213;-80
2022/06/25 04:00:08;;;;;;;;;0.50;0.50;;;;;20.44;100.00;100711.09;5090563;27;45391;-79
2022/06/25 04:02:35;;;;;;;;;0.00;0.00;;;;;20.40;100.00;100697.91;5090103;27;46172;-81
2022/06/25 04:05:01;;;;;;;;;0.00;0.00;;;;;20.42;100.00;100698.81;5089466;27;45275;-79
2022/06/25 04:07:27;;;;;;;;;1.00;1.00;;;;;20.43;100.00;100704.94;5075148;27;45347;-80
2022/06/25 04:09:52;;;;;;;;;0.00;0.00;;;;;20.43;100.00;100718.06;5080188;27;45262;-80
2022/06/25 04:12:18;;;;;;;;;0.25;0.00;;;;;20.36;100.00;100706.66;5094165;27;46298;-80
2022/06/25 04:14:44;;;;;;;;;0.00;0.00;;;;;20.30;100.00;100692.66;5060369;27;45484;-82
2022/06/25 04:17:11;;;;;;;;;0.00;0.00;;;;;20.36;100.00;100719.81;5082168;27;45282;-80
2022/06/25 04:19:42;;;;;;;;;0.75;0.50;;;;;20.30;100.00;100701.41;5084363;27;45774;-84
2022/06/25 04:22:12;;;;;;;;;0.00;0.00;;;;;20.35;100.00;100725.97;5072118;27;47904;-83
2022/06/25 04:24:39;;;;;;;;;0.00;0.00;;;;;20.37;100.00;100716.31;5090248;27;45722;-80
2022/06/25 04:27:06;;;;;;;;;1.25;0.00;;;;;20.32;100.00;100715.44;5081390;27;45468;-81
2022/06/25 04:29:32;;;;;;;;;0.00;0.00;;;;;20.33;100.00;100722.44;5078148;27;45256;-83
2022/06/25 04:31:58;;;;;;;;;1.75;1.00;;;;;20.22;100.00;100695.25;5078113;27;45401;-83
2022/06/25 04:34:24;;;;;;;;;1.00;1.00;;;;;20.32;100.00;100730.31;5078630;27;45505;-84
2022/06/25 04:36:50;;;;;;;;;0.75;0.00;;;;;20.31;100.00;100728.56;5084888;27;45261;-82
2022/06/25 04:39:16;;;;;;;;;0.00;0.00;;;;;20.30;100.00;100732.09;5081947;27;45612;-81
2022/06/25 04:41:41;;;;;;;;;0.00;0.00;;;;;20.26;100.00;100728.53;5079836;27;46157;-73
2022/06/25 04:44:07;;;;;;;;;0.00;0.00;;;;;20.30;100.00;100732.94;5079934;27;45425;-77
2022/06/25 04:46:33;;;;;;;;;1.00;1.00;;;;;20.34;100.00;100742.63;5080503;27;45540;-79
2022/06/25 04:48:59;;;;;;;;;0.00;0.00;;;;;20.36;100.00;100743.47;5068776;28;45486;-75
2022/06/25 04:51:26;;;;;;;;;0.00;0.00;;;;;20.32;100.00;100741.72;5081438;27;46273;-82
2022/06/25 04:53:55;;;;;;;;;11.25;7.25;;;;;20.41;100.00;100740.84;5099416;27;45662;-78
2022/06/25 04:56:25;;;;;;;;;0.00;0.00;;;;;20.42;100.00;100738.25;5067118;27;45517;-84
2022/06/25 04:58:52;;;;;;;;;0.25;0.25;;;;;20.48;100.00;100750.53;5080551;28;45322;-82
2022/06/25 05:01:18;;;;;;;;;1.00;0.00;;;;;20.41;100.00;100744.38;5069262;28;47387;-82
2022/06/25 05:03:44;;;;;;;;;1.00;0.00;;;;;20.46;100.00;100757.53;5077433;27;46899;-82
2022/06/25 05:06:10;;;;;;;;;0.00;0.00;;;;;20.51;100.00;100754.91;5083187;27;45237;-79
2022/06/25 05:08:36;;;;;;;;;0.00;0.00;;;;;20.55;100.00;100752.31;5078500;28;45359;-80
2022/06/25 05:11:02;;;;;;;;;0.50;0.50;;;;;20.61;100.00;100759.34;5090179;27;45757;-78
2022/06/25 05:13:28;;;;;;;;;1.00;0.00;;;;;20.67;100.00;100764.63;5097211;27;45466;-80
2022/06/25 05:15:54;;;;;;;;;0.50;0.00;;;;;20.64;100.00;100764.59;5091820;27;45381;-80
2022/06/25 05:18:19;;;;;;;;;1.00;1.00;;;;;20.66;100.00;100778.66;5080305;27;45826;-80
2022/06/25 05:20:45;;;;;;;;;0.75;0.00;;;;;20.70;100.00;100758.47;5100057;27;45336;-80
2022/06/25 05:23:12;;;;;;;;;1.00;0.00;;;;;20.71;100.00;100782.16;5065087;28;45369;-81
2022/06/25 05:25:39;;;;;;;;;0.00;0.00;;;;;20.69;100.00;100781.28;5077786;27;45350;-79
2022/06/25 05:28:05;;;;;;;;;0.00;0.00;;;;;20.69;100.00;100783.91;5086192;27;45615;-79
2022/06/25 05:30:32;;;;;;;;;0.75;0.00;;;;;20.68;98.51;100784.78;5079182;28;46454;-80
2022/06/25 05:32:58;;;;;;;;;0.50;0.50;;;;;20.62;95.79;100778.66;5079202;27;45433;-80
2022/06/25 05:35:24;;;;;;;;;0.00;0.00;;;;;20.50;94.52;100766.31;5076463;27;45536;-80
2022/06/25 05:37:50;;;;;;;;;2.00;0.00;;;;;20.55;95.67;100785.63;5095703;27;45658;-80
2022/06/25 05:40:15;;;;;;;;;0.25;0.25;;;;;20.55;94.93;100781.22;5078270;27;46257;-80
2022/06/25 05:42:41;;;;;;;;;0.00;0.00;;;;;20.51;93.83;100787.38;5089469;27;45414;-81
2022/06/25 05:45:07;;;;;;;;;0.00;0.00;;;;;20.47;93.00;100776.81;5098167;27;45319;-80
2022/06/25 05:47:33;;;;;;;;;1.25;0.00;;;;;20.57;91.78;100786.53;5097800;27;45633;-80
2022/06/25 05:50:00;;;;;;;;;1.00;1.00;;;;;20.63;90.25;100783.91;5095657;27;46290;-80
2022/06/25 05:52:26;;;;;;;;;0.25;0.25;;;;;20.57;91.02;100778.63;5089852;27;45453;-79
2022/06/25 05:54:52;;;;;;;;;0.25;0.00;;;;;20.69;91.03;100781.28;5084689;27;45355;-79
2022/06/25 05:57:19;;;;;;;;;0.25;0.25;;;;;20.68;90.77;100773.38;5095427;27;45326;-80
2022/06/25 05:59:44;;;;;;;;;0.50;0.00;;;;;20.73;90.05;100780.41;5096256;27;45382;-80
2022/06/25 06:02:10;;;;;;;;;0.75;0.75;;;;;20.72;89.92;100776.03;5080438;27;45597;-79
2022/06/25 06:04:35;;;;;;;;;1.25;1.00;;;;;20.73;88.99;100801.47;5081627;27;45523;-79
2022/06/25 06:07:02;;;;;;;;;0.00;0.00;;;;;20.75;88.01;100795.38;5068277;27;45746;-79
2022/06/25 06:09:28;;;;;;;;;0.00;0.00;;;;;20.75;87.32;100787.47;5089770;27;45358;-79
2022/06/25 06:11:57;;;;;;;;;1.50;0.25;;;;;20.80;86.80;100785.72;5080194;27;45422;-79
2022/06/25 06:14:23;;;;;;;;;0.00;0.00;;;;;20.73;86.09;100780.41;5078400;28;45332;-79
2022/06/25 06:16:49;;;;;;;;;1.00;1.00;;;;;20.75;85.91;100788.34;5096771;27;45888;-79
2022/06/25 06:19:15;;;;;;;;;0.25;0.25;;;;;20.66;84.14;100783.91;5079921;27;45579;-79
2022/06/25 06:21:40;;;;;;;;;0.75;0.75;;;;;20.75;83.43;100806.75;5097377;27;45442;-80
2022/06/25 06:24:06;;;;;;;;;0.50;0.50;;;;;20.76;83.39;100797.97;5089831;27;45357;-78
2022/06/25 06:26:33;;;;;;;;;1.00;1.00;;;;;20.79;83.68;100791.84;5084728;27;45480;-80
2022/06/25 06:28:58;;;;;;;;;1.00;1.00;;;;;20.83;83.55;100799.78;5053545;28;46749;-79
2022/06/25 06:31:24;;;;;;;;;2.00;0.75;;;;;20.82;83.26;100778.69;5055244;28;45403;-79
2022/06/25 06:33:50;;;;;;;;;3.50;1.00;;;;;20.88;81.57;100787.50;5056501;28;45392;-78
2022/06/25 06:36:15;;;;;;;;;1.00;1.00;;;;;20.96;80.39;100790.13;5056718;28;45257;-79
2022/06/25 06:38:41;;;;;;;;;0.00;0.00;;;;;21.00;76.85;100799.78;5059561;28;46232;-78
2022/06/25 06:41:06;;;;;;;;;1.75;1.00;;;;;20.97;76.77;100801.53;5073456;27;45328;-78
2022/06/25 06:43:32;;;;;;;;;2.00;1.00;;;;;20.92;76.36;100806.78;5096920;27;45314;-78
2022/06/25 06:45:58;;;;;;;;;2.75;0.00;;;;;20.98;75.84;100806.81;5088034;27;45462;-78
2022/06/25 06:48:24;;;;;;;;;1.00;1.00;;;;;20.97;75.46;100804.16;5089547;27;46009;-81
2022/06/25 06:50:49;;;;;;;;;0.00;0.00;;;;;20.98;76.15;100790.13;5088876;27;45485;-81
2022/06/25 06:53:15;;;;;;;;;0.00;0.00;;;;;20.96;76.36;100786.63;5081034;27;45747;-80
2022/06/25 06:55:40;;;;;;;;;1.00;0.00;;;;;20.99;77.07;100799.78;5093006;27;45193;-77
2022/06/25 06:58:06;;;;;;;;;0.00;0.00;;;;;21.05;76.05;100797.19;5085843;27;45898;-80
2022/06/25 07:00:32;;;;;;;;;0.50;0.50;;;;;21.11;76.01;100801.56;5082837;27;45410;-78
2022/06/25 07:02:58;;;;;;;;;1.00;1.00;;;;;21.12;75.83;100804.19;5084913;27;45324;-81
2022/06/25 07:05:23;;;;;;;;;1.75;1.25;;;;;21.15;75.58;100805.94;5089616;27;45342;-78
2022/06/25 07:07:49;;;;;;;;;0.00;0.00;;;;;21.17;74.49;100796.31;5058250;28;48043;-79
2022/06/25 07:10:15;;;;;;;;;0.00;0.00;;;;;21.19;74.97;100794.56;5076378;28;45227;-79
2022/06/25 07:12:40;;;;;;;;;0.25;0.00;;;;;21.16;74.93;100787.53;5087713;27;45426;-80
2022/06/25 07:15:06;;;;;;;;;0.50;0.00;;;;;21.24;75.21;100807.72;5096875;27;45299;-79
2022/06/25 07:17:32;;;;;;;;;0.50;0.50;;;;;21.24;76.53;100812.97;5093064;27;47236;-82
2022/06/25 07:19:58;;;;;;;;;0.00;0.00;;;;;21.27;76.85;100818.25;5078697;27;45281;-80
2022/06/25 07:22:24;;;;;;;;;3.00;2.50;;;;;21.28;78.21;100806.81;5079788;27;45495;-80
2022/06/25 07:24:51;;;;;;;;;1.00;0.00;;;;;21.30;78.63;100813.88;5076504;28;45426;-80
2022/06/25 07:27:18;;;;;;;;;1.00;1.00;;;;;21.26;78.66;100804.19;5075682;27;46266;-81
2022/06/25 07:29:44;;;;;;;;;1.00;1.00;;;;;21.31;79.03;100817.38;5075981;28;45391;-80
2022/06/25 07:32:10;;;;;;;;;0.00;0.00;;;;;21.40;78.83;100808.59;5076203;28;45295;-80
2022/06/25 07:34:37;;;;;;;;;0.25;0.25;;;;;21.45;78.17;100817.38;5088851;27;45493;-81
2022/06/25 07:37:04;;;;;;;;;1.00;1.00;;;;;21.53;77.54;100817.38;5083066;27;46440;-81
2022/06/25 07:39:29;;;;;;;;;1.75;1.00;;;;;21.56;74.29;100826.16;5065922;28;45479;-81
2022/06/25 07:41:55;;;;;;;;;0.00;0.00;;;;;21.49;74.96;100829.66;5080421;28;45311;-80
2022/06/25 07:44:22;;;;;;;;;3.00;0.00;;;;;21.46;73.02;100835.81;5081566;27;46015;-81
2022/06/25 07:46:47;;;;;;;;;0.00;0.00;;;;;21.41;71.48;100810.34;5084593;27;46154;-85
2022/06/25 07:49:13;;;;;;;;;1.00;0.00;;;;;21.46;71.67;100827.91;5078091;27;45462;-81
2022/06/25 07:51:59;;;;;;;;;0.75;0.75;;;;;21.42;72.64;100810.34;5071460;27;45416;-82
2022/06/25 07:54:27;;;;;;;;;1.00;0.75;;;;;21.52;73.29;100827.03;5096637;27;45305;-82
2022/06/25 07:56:53;;;;;;;;;0.25;0.25;;;;;21.54;73.65;100829.66;5077932;27;45654;-81
2022/06/25 07:59:19;;;;;;;;;0.00;0.00;;;;;21.60;73.53;100846.38;5095847;27;45436;-82
2022/06/25 08:01:44;;;;;;;;;0.00;0.00;;;;;21.51;73.61;100833.19;5095983;27;45518;-83
2022/06/25 08:04:10;;;;;;;;;0.00;0.00;;;;;21.56;72.80;100847.22;5095830;27;45467;-80
2022/06/25 08:06:38;;;;;;;;;1.50;1.00;;;;;21.58;73.05;100853.38;5095930;27;45532;-81
2022/06/25 08:09:07;;;;;;;;;0.00;0.00;;;;;21.61;72.20;100848.16;5095636;27;45326;-82
2022/06/25 08:11:33;;;;;;;;;1.00;0.00;;;;;21.60;70.97;100837.59;5099612;27;45360;-82
2022/06/25 08:13:59;;;;;;;;;0.50;0.50;;;;;21.62;67.20;100849.00;5102048;27;45337;-82
2022/06/25 08:16:25;;;;;;;;;1.00;0.00;;;;;21.50;68.59;100840.19;5080178;27;45440;-82
2022/06/25 08:18:54;;;;;;;;;1.00;0.00;;;;;21.57;66.92;100853.38;5099309;27;45691;-82
2022/06/25 08:21:20;;;;;;;;;1.00;1.00;;;;;21.53;66.69;100862.16;5080604;27;45414;-82
2022/06/25 08:23:46;;;;;;;;;0.25;0.25;;;;;21.47;67.71;100844.59;5101047;27;45279;-81
2022/06/25 08:26:12;;;;;;;;;0.00;0.00;;;;;21.45;68.00;100846.34;5105113;27;45341;-83
2022/06/25 08:28:38;;;;;;;;;0.00;0.00;;;;;21.54;68.10;100856.91;5102823;27;45311;-81
2022/06/25 08:31:04;;;;;;;;;1.00;1.00;;;;;21.54;69.08;100854.28;5099460;27;45353;-81
2022/06/25 08:33:30;;;;;;;;;0.25;0.25;;;;;21.61;69.03;100863.94;5099612;27;45434;-81
2022/06/25 08:35:56;;;;;;;;;1.25;1.25;;;;;21.61;69.16;100858.69;5080135;27;47692;-81
2022/06/25 08:38:22;;;;;;;;;0.00;0.00;;;;;21.51;70.28;100862.16;5098689;27;45276;-81
2022/06/25 08:40:48;;;;;;;;;0.00;0.00;;;;;21.38;70.32;100839.31;5099111;27;45254;-82
2022/06/25 08:43:14;;;;;;;;;0.00;0.00;;;;;21.50;71.32;100865.66;5099201;27;45433;-81
2022/06/25 08:45:40;;;;;;;;;1.00;1.00;;;;;21.44;72.30;100863.00;5080260;27;47992;-82
2022/06/25 08:48:16;;;;;;;;;1.25;1.25;;;;;21.41;72.79;100861.25;5098116;27;45295;-81
2022/06/25 08:50:44;;;;;;;;;1.00;1.00;;;;;21.39;72.89;100872.69;5098838;27;45385;-81
2022/06/25 08:53:12;;;;;;;;;0.25;0.00;;;;;21.27;74.15;100858.63;5098555;27;45421;-82
2022/06/25 08:55:39;;;;;;;;;0.25;0.25;;;;;21.19;74.91;100857.75;5098376;27;46304;-82
2022/06/25 08:58:11;;;;;;;;;2.00;1.00;;;;;21.28;75.62;100867.38;5098444;27;45271;-83
2022/06/25 09:00:43;;;;;;;;;2.00;0.25;;;;;21.33;75.75;100870.94;5080203;27;45345;-82
2022/06/25 09:03:09;;;;;;;;;3.00;1.00;;;;;21.37;76.47;100866.53;5098352;27;45385;-82
2022/06/25 09:05:37;;;;;;;;;1.00;0.00;;;;;21.41;77.49;100874.44;5098175;27;46024;-80
2022/06/25 09:08:06;;;;;;;;;1.50;1.50;;;;;21.31;78.43;100860.41;5099134;27;45695;-79
2022/06/25 09:10:33;;;;;;;;;3.00;1.00;;;;;21.29;77.86;100880.59;5101389;27;45377;-82
2022/06/25 09:13:01;;;;;;;;;1.25;1.25;;;;;21.13;79.00;100879.66;5099981;27;45470;-82
2022/06/25 09:15:37;;;;;;;;;3.75;1.00;;;;;21.09;80.28;100887.56;5098392;27;45360;-82
2022/06/25 09:18:12;;;;;;;;;2.00;2.00;;;;;21.05;81.09;100884.06;5098191;27;45193;-81
2022/06/25 09:20:57;;;;;;;;;1.25;1.25;;;;;21.14;80.98;100872.63;5098170;27;45337;-81
2022/06/25 09:23:24;;;;;;;;;1.00;1.00;;;;;21.22;80.75;100864.75;5096903;27;45484;-82
2022/06/25 09:26:10;;;;;;;;;2.00;2.00;;;;;21.45;78.46;100865.66;5097963;27;45351;-82
2022/06/25 09:28:41;;;;;;;;;3.50;1.25;;;;;21.50;77.61;100873.56;5079191;27;45639;-81
2022/06/25 09:31:08;;;;;;;;;1.00;1.00;;;;;21.55;78.42;100857.75;5097641;27;45266;-81
2022/06/25 09:33:37;;;;;;;;;1.00;1.00;;;;;21.59;78.15;100847.25;5097746;27;45231;-80
2022/06/25 09:36:06;;;;;;;;;1.25;1.25;;;;;21.73;76.74;100844.59;5078606;27;47441;-80
2022/06/25 09:38:32;;;;;;;;;2.00;2.00;;;;;21.88;75.62;100843.72;5097098;27;45748;-79
2022/06/25 09:40:59;;;;;;;;;1.00;1.00;;;;;22.03;74.40;100850.72;5097234;27;45316;-81
2022/06/25 09:43:39;;;;;;;;;2.00;1.00;;;;;22.15;73.74;100847.19;5097252;27;45486;-82
2022/06/25 09:46:06;;;;;;;;;1.50;1.50;;;;;22.13;73.52;100846.31;5097247;27;45490;-81
2022/06/25 09:48:35;;;;;;;;;6.00;4.00;;;;;22.09;74.18;100839.28;5097714;27;45292;-81
2022/06/25 09:51:15;;;;;;;;;3.50;3.00;;;;;22.19;74.07;100848.06;5096914;27;45365;-82
2022/06/25 09:53:51;;;;;;;;;1.00;1.00;;;;;22.22;72.89;100856.81;5101694;27;45329;-81
2022/06/25 09:56:28;;;;;;;;;0.75;0.75;;;;;22.20;72.25;100852.44;5106457;27;45492;-81
2022/06/25 09:58:55;;;;;;;;;7.50;7.50;;;;;22.21;72.72;100851.56;5103707;27;45615;-81
2022/06/25 10:01:29;;;;;;;;;2.00;2.00;;;;;22.14;72.59;100845.44;5100152;27;44812;-82
2022/06/25 10:03:55;;;;;;;;;2.25;2.25;;;;;22.09;72.36;100839.28;5079489;27;45526;-81
2022/06/25 10:06:23;;;;;;;;;2.25;2.00;;;;;22.14;72.58;100850.69;5097158;27;45274;-81
2022/06/25 10:08:54;;;;;;;;;2.00;2.00;;;;;22.16;70.35;100864.75;5097329;27;45346;-81
2022/06/25 10:11:23;;;;;;;;;1.00;1.00;;;;;22.10;69.41;100852.47;5097111;27;45400;-81
2022/06/25 10:13:53;;;;;;;;;2.25;1.50;;;;;22.07;69.03;100865.66;5097528;27;45431;-81
2022/06/25 10:16:20;;;;;;;;;4.25;2.00;;;;;21.99;68.62;100851.63;5078338;27;45422;-82
2022/06/25 10:18:49;;;;;;;;;2.75;2.00;;;;;21.97;68.91;100853.38;5097304;27;45220;-82
2022/06/25 10:21:15;;;;;;;;;1.50;1.00;;;;;22.04;69.34;100854.25;5096870;27;45417;-81
2022/06/25 10:23:42;;;;;;;;;2.00;2.00;;;;;22.05;69.95;100848.09;5097685;27;45334;-81
2022/06/25 10:26:10;;;;;;;;;2.75;2.75;;;;;22.09;70.40;100840.16;5078394;27;46524;-81
2022/06/25 10:28:36;;;;;;;;;5.00;2.00;;;;;22.23;70.93;100845.41;5078789;27;45563;-81
2022/06/25 10:31:20;;;;;;;;;3.00;2.00;;;;;22.30;70.89;100819.88;5078805;27;45495;-81
2022/06/25 10:33:57;;;;;;;;;3.50;2.00;;;;;22.39;70.55;100814.56;5097532;27;45374;-81
2022/06/25 10:36:41;;;;;;;;;2.00;2.00;;;;;22.59;70.78;100832.09;5096536;27;46261;-80
2022/06/25 10:39:25;;;;;;;;;3.00;1.75;;;;;22.78;70.15;100837.31;5083523;27;45733;-83
2022/06/25 10:45:14;;;;;;;;;1.75;1.75;;;;;22.95;67.88;100830.16;5097842;27;45371;-81
2022/06/25 10:47:41;;;;;;;;;3.00;2.75;;;;;22.95;67.59;100832.78;5096849;27;45325;-81
2022/06/25 10:50:34;;;;;;;;;1.00;1.00;;;;;22.97;67.62;100841.59;5096686;27;45461;-81
2022/06/25 10:53:03;;;;;;;;;2.50;1.25;;;;;23.00;67.62;100841.53;5093033;27;45371;-81
2022/06/25 10:55:29;;;;;;;;;3.00;1.00;;;;;23.00;65.45;100852.09;5097227;27;45484;-81
2022/06/25 10:58:15;;;;;;;;;2.75;2.75;;;;;22.97;64.33;100852.16;5097130;27;46241;-82
2022/06/25 11:00:49;;;;;;;;;2.00;1.00;;;;;22.91;64.20;100844.25;5096958;27;45354;-82
2022/06/25 11:03:16;;;;;;;;;1.25;1.25;;;;;22.93;63.63;100839.84;5096683;27;45441;-82
2022/06/25 11:05:45;;;;;;;;;1.00;1.00;;;;;22.94;62.26;100836.31;5096998;27;45334;-81
2022/06/25 11:08:11;;;;;;;;;3.50;3.50;;;;;23.00;62.36;100838.91;5096168;27;46063;-81
2022/06/25 11:10:39;;;;;;;;;5.00;4.00;;;;;23.07;62.52;100838.88;5096458;27;45451;-82
2022/06/25 11:13:05;;;;;;;;;4.00;4.00;;;;;23.06;62.89;100832.72;5096315;27;45458;-82
2022/06/25 11:15:44;;;;;;;;;2.00;2.00;;;;;23.16;63.05;100844.97;5096668;27;45429;-82
2022/06/25 11:18:12;;;;;;;;;3.75;3.75;;;;;23.19;63.12;100844.13;5095979;27;45445;-83
2022/06/25 11:20:42;;;;;;;;;2.25;2.25;;;;;23.17;63.36;100837.94;5096344;27;45751;-82
2022/06/25 11:23:15;;;;;;;;;3.50;2.50;;;;;23.25;63.19;100853.75;5077981;27;45285;-82
2022/06/25 11:28:47;;;;;;;;;2.00;2.00;;;;;23.18;64.28;100852.88;5102221;27;45425;-81
2022/06/25 11:31:21;;;;;;;;;2.25;2.25;;;;;23.22;64.11;100852.00;5098807;27;45342;-81
2022/06/25 11:33:49;;;;;;;;;1.25;1.25;;;;;23.22;64.38;100861.69;5096660;27;45248;-80